sensor_id;sensor_type;location;lat;lon;timestamp;temperature;humidity
27781;DHT22;15167;1.318;103.762;2022-07-15T00:00:13;28.60;99.90
27781;DHT22;15167;1.318;103.762;2022-07-15T00:02:40;28.60;99.90
27781;DHT22;15167;1.318;103.762;2022-07-15T00:05:07;28.60;99.90
27781;DHT22;15167;1.318;103.762;2022-07-15T00:07:33;28.80;99.90
27781;DHT22;15167;1.318;103.762;2022-07-15T00:09:59;28.80;99.90
27781;DHT22;15167;1.318;103.762;2022-07-15T00:13:02;28.90;99.90
27781;DHT22;15167;1.318;103.762;2022-07-15T00:15:28;28.90;99.90
27781;DHT22;15167;1.318;103.762;2022-07-15T00:17:55;29.00;99.90
27781;DHT22;15167;1.318;103.762;2022-07-15T00:20:25;29.10;99.90
27781;DHT22;15167;1.318;103.762;2022-07-15T00:22:52;29.20;99.90
27781;DHT22;15167;1.318;103.762;2022-07-15T00:25:18;29.30;99.90
27781;DHT22;15167;1.318;103.762;2022-07-15T00:27:57;29.40;99.90
27781;DHT22;15167;1.318;103.762;2022-07-15T00:30:27;29.50;99.90
27781;DHT22;15167;1.318;103.762;2022-07-15T00:32:53;29.50;99.90
27781;DHT22;15167;1.318;103.762;2022-07-15T00:35:19;29.60;99.90
27781;DHT22;15167;1.318;103.762;2022-07-15T00:37:45;29.70;99.90
27781;DHT22;15167;1.318;103.762;2022-07-15T00:40:12;29.80;99.90
27781;DHT22;15167;1.318;103.762;2022-07-15T00:42:38;29.90;99.90
27781;DHT22;15167;1.318;103.762;2022-07-15T00:45:14;29.90;99.90
27781;DHT22;15167;1.318;103.762;2022-07-15T00:47:41;30.00;99.90
27781;DHT22;15167;1.318;103.762;2022-07-15T00:50:08;30.00;99.90
27781;DHT22;15167;1.318;103.762;2022-07-15T00:52:35;30.00;99.90
27781;DHT22;15167;1.318;103.762;2022-07-15T00:55:04;30.10;99.90
27781;DHT22;15167;1.318;103.762;2022-07-15T00:57:32;30.10;99.90
27781;DHT22;15167;1.318;103.762;2022-07-15T00:59:59;30.00;99.90
27781;DHT22;15167;1.318;103.762;2022-07-15T01:02:26;30.00;99.90
27781;DHT22;15167;1.318;103.762;2022-07-15T01:04:53;30.00;99.90
27781;DHT22;15167;1.318;103.762;2022-07-15T01:07:19;29.90;99.90
27781;DHT22;15167;1.318;103.762;2022-07-15T01:09:46;29.90;99.90
27781;DHT22;15167;1.318;103.762;2022-07-15T01:12:13;29.90;99.90
27781;DHT22;15167;1.318;103.762;2022-07-15T01:14:39;29.90;99.90
27781;DHT22;15167;1.318;103.762;2022-07-15T01:17:09;30.00;99.90
27781;DHT22;15167;1.318;103.762;2022-07-15T01:19:36;29.90;99.90
27781;DHT22;15167;1.318;103.762;2022-07-15T01:22:03;29.90;99.90
27781;DHT22;15167;1.318;103.762;2022-07-15T01:24:29;29.90;99.90
27781;DHT22;15167;1.318;103.762;2022-07-15T01:26:55;29.90;99.90
27781;DHT22;15167;1.318;103.762;2022-07-15T01:29:21;30.10;99.90
27781;DHT22;15167;1.318;103.762;2022-07-15T01:31:47;30.20;99.90
27781;DHT22;15167;1.318;103.762;2022-07-15T01:34:13;30.30;99.90
27781;DHT22;15167;1.318;103.762;2022-07-15T01:36:39;30.40;99.90
27781;DHT22;15167;1.318;103.762;2022-07-15T01:39:05;30.50;99.90
27781;DHT22;15167;1.318;103.762;2022-07-15T01:41:32;30.60;99.90
27781;DHT22;15167;1.318;103.762;2022-07-15T01:43:58;30.70;99.90
27781;DHT22;15167;1.318;103.762;2022-07-15T01:46:24;30.70;99.90
27781;DHT22;15167;1.318;103.762;2022-07-15T01:48:50;30.60;99.90
27781;DHT22;15167;1.318;103.762;2022-07-15T01:51:34;30.40;99.90
27781;DHT22;15167;1.318;103.762;2022-07-15T01:54:01;30.30;99.90
27781;DHT22;15167;1.318;103.762;2022-07-15T01:56:27;30.30;99.90
27781;DHT22;15167;1.318;103.762;2022-07-15T01:58:53;30.30;99.90
27781;DHT22;15167;1.318;103.762;2022-07-15T02:01:19;30.30;99.90
27781;DHT22;15167;1.318;103.762;2022-07-15T02:03:45;30.30;99.90
27781;DHT22;15167;1.318;103.762;2022-07-15T02:06:11;30.40;99.90
27781;DHT22;15167;1.318;103.762;2022-07-15T02:08:37;30.40;99.90
27781;DHT22;15167;1.318;103.762;2022-07-15T02:11:03;30.50;99.90
27781;DHT22;15167;1.318;103.762;2022-07-15T02:13:30;30.60;99.90
27781;DHT22;15167;1.318;103.762;2022-07-15T02:15:56;30.60;99.90
27781;DHT22;15167;1.318;103.762;2022-07-15T02:18:22;30.70;99.90
27781;DHT22;15167;1.318;103.762;2022-07-15T02:20:48;30.60;99.90
27781;DHT22;15167;1.318;103.762;2022-07-15T02:23:14;30.60;99.90
27781;DHT22;15167;1.318;103.762;2022-07-15T02:25:40;30.70;99.90
27781;DHT22;15167;1.318;103.762;2022-07-15T02:28:07;30.80;99.90
27781;DHT22;15167;1.318;103.762;2022-07-15T02:30:34;30.90;99.90
27781;DHT22;15167;1.318;103.762;2022-07-15T02:33:01;31.00;99.90
27781;DHT22;15167;1.318;103.762;2022-07-15T02:35:28;31.20;99.90
27781;DHT22;15167;1.318;103.762;2022-07-15T02:37:55;31.30;99.90
27781;DHT22;15167;1.318;103.762;2022-07-15T02:40:21;31.50;99.90
27781;DHT22;15167;1.318;103.762;2022-07-15T02:42:48;31.50;99.90
27781;DHT22;15167;1.318;103.762;2022-07-15T02:45:15;31.60;99.90
27781;DHT22;15167;1.318;103.762;2022-07-15T02:47:41;31.60;99.60
27781;DHT22;15167;1.318;103.762;2022-07-15T02:50:07;31.80;99.40
27781;DHT22;15167;1.318;103.762;2022-07-15T02:52:33;31.90;99.20
27781;DHT22;15167;1.318;103.762;2022-07-15T02:55:01;32.00;98.40
27781;DHT22;15167;1.318;103.762;2022-07-15T02:57:27;32.20;97.80
27781;DHT22;15167;1.318;103.762;2022-07-15T02:59:53;32.40;98.60
27781;DHT22;15167;1.318;103.762;2022-07-15T03:02:20;32.60;99.60
27781;DHT22;15167;1.318;103.762;2022-07-15T03:04:46;32.40;97.80
27781;DHT22;15167;1.318;103.762;2022-07-15T03:07:13;32.30;99.90
27781;DHT22;15167;1.318;103.762;2022-07-15T03:09:39;32.30;99.90
27781;DHT22;15167;1.318;103.762;2022-07-15T03:12:05;32.40;99.40
27781;DHT22;15167;1.318;103.762;2022-07-15T03:14:31;32.60;98.70
27781;DHT22;15167;1.318;103.762;2022-07-15T03:16:57;32.70;99.40
27781;DHT22;15167;1.318;103.762;2022-07-15T03:19:24;32.60;99.90
27781;DHT22;15167;1.318;103.762;2022-07-15T03:21:50;32.60;99.90
27781;DHT22;15167;1.318;103.762;2022-07-15T03:24:16;32.60;99.90
27781;DHT22;15167;1.318;103.762;2022-07-15T03:26:42;32.70;99.90
27781;DHT22;15167;1.318;103.762;2022-07-15T03:29:09;32.80;99.90
27781;DHT22;15167;1.318;103.762;2022-07-15T03:31:35;33.00;99.80
27781;DHT22;15167;1.318;103.762;2022-07-15T03:34:01;33.10;98.60
27781;DHT22;15167;1.318;103.762;2022-07-15T03:36:27;33.10;98.60
27781;DHT22;15167;1.318;103.762;2022-07-15T03:38:54;33.20;98.40
27781;DHT22;15167;1.318;103.762;2022-07-15T03:41:20;33.30;98.10
27781;DHT22;15167;1.318;103.762;2022-07-15T03:43:46;33.20;97.40
27781;DHT22;15167;1.318;103.762;2022-07-15T03:46:12;33.30;97.30
27781;DHT22;15167;1.318;103.762;2022-07-15T03:48:42;33.30;97.50
27781;DHT22;15167;1.318;103.762;2022-07-15T03:51:09;33.40;97.30
27781;DHT22;15167;1.318;103.762;2022-07-15T03:53:35;33.30;97.10
27781;DHT22;15167;1.318;103.762;2022-07-15T03:56:01;33.40;96.50
27781;DHT22;15167;1.318;103.762;2022-07-15T03:58:27;33.50;95.80
27781;DHT22;15167;1.318;103.762;2022-07-15T04:00:53;33.60;94.80
27781;DHT22;15167;1.318;103.762;2022-07-15T04:03:20;33.50;94.60
27781;DHT22;15167;1.318;103.762;2022-07-15T04:05:46;33.50;94.80
27781;DHT22;15167;1.318;103.762;2022-07-15T04:08:12;33.50;94.40
27781;DHT22;15167;1.318;103.762;2022-07-15T04:10:38;33.50;94.10
27781;DHT22;15167;1.318;103.762;2022-07-15T04:13:04;33.60;93.60
27781;DHT22;15167;1.318;103.762;2022-07-15T04:15:30;33.80;93.10
27781;DHT22;15167;1.318;103.762;2022-07-15T04:17:56;33.80;92.70
27781;DHT22;15167;1.318;103.762;2022-07-15T04:20:24;33.90;92.10
27781;DHT22;15167;1.318;103.762;2022-07-15T04:22:50;33.90;91.20
27781;DHT22;15167;1.318;103.762;2022-07-15T04:25:17;34.00;90.20
27781;DHT22;15167;1.318;103.762;2022-07-15T04:27:44;34.10;89.30
27781;DHT22;15167;1.318;103.762;2022-07-15T04:30:10;34.20;86.80
27781;DHT22;15167;1.318;103.762;2022-07-15T04:32:37;34.30;84.40
27781;DHT22;15167;1.318;103.762;2022-07-15T04:35:04;34.50;81.50
27781;DHT22;15167;1.318;103.762;2022-07-15T04:37:30;34.70;80.30
27781;DHT22;15167;1.318;103.762;2022-07-15T04:39:56;34.80;78.10
27781;DHT22;15167;1.318;103.762;2022-07-15T04:42:23;34.80;75.50
27781;DHT22;15167;1.318;103.762;2022-07-15T04:44:49;35.10;70.90
27781;DHT22;15167;1.318;103.762;2022-07-15T04:47:16;35.20;67.20
27781;DHT22;15167;1.318;103.762;2022-07-15T04:49:42;35.30;64.10
27781;DHT22;15167;1.318;103.762;2022-07-15T04:52:27;35.40;64.60
27781;DHT22;15167;1.318;103.762;2022-07-15T04:54:53;35.60;59.40
27781;DHT22;15167;1.318;103.762;2022-07-15T04:57:20;35.70;56.40
27781;DHT22;15167;1.318;103.762;2022-07-15T04:59:46;35.80;55.10
27781;DHT22;15167;1.318;103.762;2022-07-15T05:02:12;35.80;56.40
27781;DHT22;15167;1.318;103.762;2022-07-15T05:04:39;35.90;52.00
27781;DHT22;15167;1.318;103.762;2022-07-15T05:07:05;36.60;44.60
27781;DHT22;15167;1.318;103.762;2022-07-15T05:09:32;37.60;31.50
27781;DHT22;15167;1.318;103.762;2022-07-15T05:11:58;38.50;23.60
27781;DHT22;15167;1.318;103.762;2022-07-15T05:14:24;39.10;16.70
27781;DHT22;15167;1.318;103.762;2022-07-15T05:16:50;39.70;12.90
27781;DHT22;15167;1.318;103.762;2022-07-15T05:19:16;39.90;10.60
27781;DHT22;15167;1.318;103.762;2022-07-15T05:21:43;40.00;8.60
27781;DHT22;15167;1.318;103.762;2022-07-15T05:24:09;40.00;7.40
27781;DHT22;15167;1.318;103.762;2022-07-15T05:26:35;39.90;6.80
27781;DHT22;15167;1.318;103.762;2022-07-15T05:29:01;39.90;6.70
27781;DHT22;15167;1.318;103.762;2022-07-15T05:31:27;40.00;6.20
27781;DHT22;15167;1.318;103.762;2022-07-15T05:33:53;39.90;5.60
27781;DHT22;15167;1.318;103.762;2022-07-15T05:36:20;39.80;5.40
27781;DHT22;15167;1.318;103.762;2022-07-15T05:38:46;39.50;6.20
27781;DHT22;15167;1.318;103.762;2022-07-15T05:41:12;39.40;6.30
27781;DHT22;15167;1.318;103.762;2022-07-15T05:43:38;39.20;6.90
27781;DHT22;15167;1.318;103.762;2022-07-15T05:46:05;39.10;7.60
27781;DHT22;15167;1.318;103.762;2022-07-15T05:48:31;39.20;7.50
27781;DHT22;15167;1.318;103.762;2022-07-15T05:50:57;39.20;6.70
27781;DHT22;15167;1.318;103.762;2022-07-15T05:53:24;39.30;6.10
27781;DHT22;15167;1.318;103.762;2022-07-15T05:55:50;39.30;6.30
27781;DHT22;15167;1.318;103.762;2022-07-15T05:58:18;39.60;5.60
27781;DHT22;15167;1.318;103.762;2022-07-15T06:00:44;39.40;5.30
27781;DHT22;15167;1.318;103.762;2022-07-15T06:03:10;39.40;5.40
27781;DHT22;15167;1.318;103.762;2022-07-15T06:05:36;39.30;5.40
27781;DHT22;15167;1.318;103.762;2022-07-15T06:08:02;39.20;5.90
27781;DHT22;15167;1.318;103.762;2022-07-15T06:10:29;38.70;7.20
27781;DHT22;15167;1.318;103.762;2022-07-15T06:12:55;38.70;7.70
27781;DHT22;15167;1.318;103.762;2022-07-15T06:15:21;39.00;6.10
27781;DHT22;15167;1.318;103.762;2022-07-15T06:17:49;39.30;5.20
27781;DHT22;15167;1.318;103.762;2022-07-15T06:20:15;39.40;5.00
27781;DHT22;15167;1.318;103.762;2022-07-15T06:22:41;39.50;4.60
27781;DHT22;15167;1.318;103.762;2022-07-15T06:25:07;39.90;3.60
27781;DHT22;15167;1.318;103.762;2022-07-15T06:27:34;40.20;2.70
27781;DHT22;15167;1.318;103.762;2022-07-15T06:30:00;40.20;2.20
27781;DHT22;15167;1.318;103.762;2022-07-15T06:32:26;40.30;1.80
27781;DHT22;15167;1.318;103.762;2022-07-15T06:34:52;40.30;1.50
27781;DHT22;15167;1.318;103.762;2022-07-15T06:37:19;40.40;1.20
27781;DHT22;15167;1.318;103.762;2022-07-15T06:39:45;40.70;1.00
27781;DHT22;15167;1.318;103.762;2022-07-15T06:42:11;40.70;1.00
27781;DHT22;15167;1.318;103.762;2022-07-15T06:44:37;40.00;1.00
27781;DHT22;15167;1.318;103.762;2022-07-15T06:47:03;40.00;1.50
27781;DHT22;15167;1.318;103.762;2022-07-15T06:49:35;40.30;1.10
27781;DHT22;15167;1.318;103.762;2022-07-15T06:52:01;40.00;1.30
27781;DHT22;15167;1.318;103.762;2022-07-15T06:54:27;39.30;2.40
27781;DHT22;15167;1.318;103.762;2022-07-15T06:56:54;39.10;3.80
27781;DHT22;15167;1.318;103.762;2022-07-15T06:59:20;38.80;5.10
27781;DHT22;15167;1.318;103.762;2022-07-15T07:01:46;38.30;7.60
27781;DHT22;15167;1.318;103.762;2022-07-15T07:04:12;37.60;12.10
27781;DHT22;15167;1.318;103.762;2022-07-15T07:06:38;37.00;18.70
27781;DHT22;15167;1.318;103.762;2022-07-15T07:09:05;36.50;23.60
27781;DHT22;15167;1.318;103.762;2022-07-15T07:11:31;36.10;30.00
27781;DHT22;15167;1.318;103.762;2022-07-15T07:13:58;35.70;37.70
27781;DHT22;15167;1.318;103.762;2022-07-15T07:16:25;35.70;40.90
27781;DHT22;15167;1.318;103.762;2022-07-15T07:18:52;36.30;33.50
27781;DHT22;15167;1.318;103.762;2022-07-15T07:21:18;36.70;31.20
27781;DHT22;15167;1.318;103.762;2022-07-15T07:23:45;37.80;22.70
27781;DHT22;15167;1.318;103.762;2022-07-15T07:26:11;38.80;15.00
27781;DHT22;15167;1.318;103.762;2022-07-15T07:28:38;39.90;8.50
27781;DHT22;15167;1.318;103.762;2022-07-15T07:31:09;40.30;5.20
27781;DHT22;15167;1.318;103.762;2022-07-15T07:33:36;40.20;5.00
27781;DHT22;15167;1.318;103.762;2022-07-15T07:36:02;39.50;5.70
27781;DHT22;15167;1.318;103.762;2022-07-15T07:38:29;38.60;8.70
27781;DHT22;15167;1.318;103.762;2022-07-15T07:40:55;37.90;13.80
27781;DHT22;15167;1.318;103.762;2022-07-15T07:43:21;37.10;20.60
27781;DHT22;15167;1.318;103.762;2022-07-15T07:45:47;36.40;28.50
27781;DHT22;15167;1.318;103.762;2022-07-15T07:48:14;35.80;37.50
27781;DHT22;15167;1.318;103.762;2022-07-15T07:50:42;35.50;44.10
27781;DHT22;15167;1.318;103.762;2022-07-15T07:53:08;35.20;50.20
27781;DHT22;15167;1.318;103.762;2022-07-15T07:55:35;34.90;56.60
27781;DHT22;15167;1.318;103.762;2022-07-15T07:58:02;34.70;60.50
27781;DHT22;15167;1.318;103.762;2022-07-15T08:00:28;34.50;65.00
27781;DHT22;15167;1.318;103.762;2022-07-15T08:02:56;34.30;68.00
27781;DHT22;15167;1.318;103.762;2022-07-15T08:05:22;34.20;70.60
27781;DHT22;15167;1.318;103.762;2022-07-15T08:07:49;34.10;72.50
27781;DHT22;15167;1.318;103.762;2022-07-15T08:10:15;34.00;74.70
27781;DHT22;15167;1.318;103.762;2022-07-15T08:12:42;34.00;75.80
27781;DHT22;15167;1.318;103.762;2022-07-15T08:15:09;34.00;75.50
27781;DHT22;15167;1.318;103.762;2022-07-15T08:17:37;34.30;73.40
27781;DHT22;15167;1.318;103.762;2022-07-15T08:20:04;34.60;66.80
27781;DHT22;15167;1.318;103.762;2022-07-15T08:22:31;35.00;63.10
27781;DHT22;15167;1.318;103.762;2022-07-15T08:24:57;35.10;60.40
27781;DHT22;15167;1.318;103.762;2022-07-15T08:27:23;35.10;61.20
27781;DHT22;15167;1.318;103.762;2022-07-15T08:29:49;35.20;60.00
27781;DHT22;15167;1.318;103.762;2022-07-15T08:32:15;35.10;57.90
27781;DHT22;15167;1.318;103.762;2022-07-15T08:34:41;35.00;59.90
27781;DHT22;15167;1.318;103.762;2022-07-15T08:37:08;34.90;60.50
27781;DHT22;15167;1.318;103.762;2022-07-15T08:39:35;34.90;60.50
27781;DHT22;15167;1.318;103.762;2022-07-15T08:42:03;34.90;62.00
27781;DHT22;15167;1.318;103.762;2022-07-15T08:44:29;34.60;68.10
27781;DHT22;15167;1.318;103.762;2022-07-15T08:46:57;34.50;70.40
27781;DHT22;15167;1.318;103.762;2022-07-15T08:49:26;34.40;72.50
27781;DHT22;15167;1.318;103.762;2022-07-15T08:51:54;34.20;76.90
27781;DHT22;15167;1.318;103.762;2022-07-15T08:54:22;34.20;77.30
27781;DHT22;15167;1.318;103.762;2022-07-15T08:56:48;34.20;78.80
27781;DHT22;15167;1.318;103.762;2022-07-15T08:59:14;34.20;78.90
27781;DHT22;15167;1.318;103.762;2022-07-15T09:01:42;34.10;80.10
27781;DHT22;15167;1.318;103.762;2022-07-15T09:04:08;34.20;80.50
27781;DHT22;15167;1.318;103.762;2022-07-15T09:06:35;34.20;78.30
27781;DHT22;15167;1.318;103.762;2022-07-15T09:12:01;34.50;77.30
27781;DHT22;15167;1.318;103.762;2022-07-15T09:14:28;34.60;75.90
27781;DHT22;15167;1.318;103.762;2022-07-15T09:19:55;34.50;75.50
27781;DHT22;15167;1.318;103.762;2022-07-15T09:22:23;34.50;76.70
27781;DHT22;15167;1.318;103.762;2022-07-15T09:25:05;34.50;74.50
27781;DHT22;15167;1.318;103.762;2022-07-15T09:27:42;34.40;75.30
27781;DHT22;15167;1.318;103.762;2022-07-15T09:33:14;34.10;80.70
27781;DHT22;15167;1.318;103.762;2022-07-15T09:36:09;33.90;84.40
27781;DHT22;15167;1.318;103.762;2022-07-15T09:38:40;33.70;85.50
27781;DHT22;15167;1.318;103.762;2022-07-15T09:41:11;33.80;85.90
27781;DHT22;15167;1.318;103.762;2022-07-15T09:43:48;33.60;88.10
27781;DHT22;15167;1.318;103.762;2022-07-15T09:46:15;33.50;88.70
27781;DHT22;15167;1.318;103.762;2022-07-15T09:48:42;33.50;90.10
27781;DHT22;15167;1.318;103.762;2022-07-15T09:51:09;33.40;90.40
27781;DHT22;15167;1.318;103.762;2022-07-15T09:53:35;33.20;90.20
27781;DHT22;15167;1.318;103.762;2022-07-15T09:56:02;33.10;90.00
27781;DHT22;15167;1.318;103.762;2022-07-15T09:58:29;33.00;91.10
27781;DHT22;15167;1.318;103.762;2022-07-15T10:00:57;32.90;91.70
27781;DHT22;15167;1.318;103.762;2022-07-15T10:03:23;32.90;91.50
27781;DHT22;15167;1.318;103.762;2022-07-15T10:05:52;32.90;90.90
27781;DHT22;15167;1.318;103.762;2022-07-15T10:08:19;32.70;90.90
27781;DHT22;15167;1.318;103.762;2022-07-15T10:10:46;32.60;90.20
27781;DHT22;15167;1.318;103.762;2022-07-15T10:13:23;32.60;89.00
27781;DHT22;15167;1.318;103.762;2022-07-15T10:16:00;32.50;90.20
27781;DHT22;15167;1.318;103.762;2022-07-15T10:28:57;32.30;88.60
27781;DHT22;15167;1.318;103.762;2022-07-15T10:31:25;32.30;86.30
27781;DHT22;15167;1.318;103.762;2022-07-15T10:39:12;32.40;81.10
27781;DHT22;15167;1.318;103.762;2022-07-15T10:41:51;32.50;77.50
27781;DHT22;15167;1.318;103.762;2022-07-15T10:44:18;32.60;77.50
27781;DHT22;15167;1.318;103.762;2022-07-15T10:46:44;31.30;76.30
27781;DHT22;15167;1.318;103.762;2022-07-15T10:54:03;32.40;75.60
27781;DHT22;15167;1.318;103.762;2022-07-15T10:56:33;31.50;73.80
27781;DHT22;15167;1.318;103.762;2022-07-15T10:59:17;32.20;76.60
27781;DHT22;15167;1.318;103.762;2022-07-15T11:01:46;32.10;79.80
27781;DHT22;15167;1.318;103.762;2022-07-15T11:04:14;32.00;82.30
27781;DHT22;15167;1.318;103.762;2022-07-15T11:12:10;31.80;91.70
27781;DHT22;15167;1.318;103.762;2022-07-15T11:14:42;31.60;93.00
27781;DHT22;15167;1.318;103.762;2022-07-15T11:17:09;31.50;93.40
27781;DHT22;15167;1.318;103.762;2022-07-15T11:19:36;31.50;94.40
27781;DHT22;15167;1.318;103.762;2022-07-15T11:22:02;31.30;95.10
27781;DHT22;15167;1.318;103.762;2022-07-15T11:24:29;31.30;95.50
27781;DHT22;15167;1.318;103.762;2022-07-15T11:26:55;31.30;96.00
27781;DHT22;15167;1.318;103.762;2022-07-15T11:29:21;31.20;96.90
27781;DHT22;15167;1.318;103.762;2022-07-15T11:31:47;31.20;97.40
27781;DHT22;15167;1.318;103.762;2022-07-15T11:34:14;31.20;97.40
27781;DHT22;15167;1.318;103.762;2022-07-15T11:36:40;31.20;97.60
27781;DHT22;15167;1.318;103.762;2022-07-15T11:39:06;31.20;98.10
27781;DHT22;15167;1.318;103.762;2022-07-15T11:41:32;31.20;98.30
27781;DHT22;15167;1.318;103.762;2022-07-15T11:44:17;31.20;97.90
27781;DHT22;15167;1.318;103.762;2022-07-15T11:46:56;31.20;98.50
27781;DHT22;15167;1.318;103.762;2022-07-15T11:49:29;31.00;98.60
27781;DHT22;15167;1.318;103.762;2022-07-15T11:51:56;31.10;98.90
27781;DHT22;15167;1.318;103.762;2022-07-15T11:54:25;30.90;99.50
27781;DHT22;15167;1.318;103.762;2022-07-15T11:56:59;30.90;99.80
27781;DHT22;15167;1.318;103.762;2022-07-15T11:59:26;30.80;99.90
27781;DHT22;15167;1.318;103.762;2022-07-15T12:04:27;30.80;99.90
27781;DHT22;15167;1.318;103.762;2022-07-15T12:06:53;30.80;99.90
27781;DHT22;15167;1.318;103.762;2022-07-15T12:09:20;30.70;99.90
27781;DHT22;15167;1.318;103.762;2022-07-15T12:11:46;30.70;99.90
27781;DHT22;15167;1.318;103.762;2022-07-15T12:14:13;30.70;99.90
27781;DHT22;15167;1.318;103.762;2022-07-15T12:16:47;30.70;99.90
27781;DHT22;15167;1.318;103.762;2022-07-15T12:19:14;30.70;99.90
27781;DHT22;15167;1.318;103.762;2022-07-15T12:21:41;30.70;99.90
27781;DHT22;15167;1.318;103.762;2022-07-15T12:24:26;30.70;99.90
27781;DHT22;15167;1.318;103.762;2022-07-15T12:26:57;30.70;99.90
27781;DHT22;15167;1.318;103.762;2022-07-15T12:29:24;30.70;99.90
27781;DHT22;15167;1.318;103.762;2022-07-15T12:31:56;30.60;99.90
27781;DHT22;15167;1.318;103.762;2022-07-15T12:37:06;30.60;99.90
27781;DHT22;15167;1.318;103.762;2022-07-15T12:39:32;30.50;99.90
27781;DHT22;15167;1.318;103.762;2022-07-15T12:41:59;30.40;99.90
27781;DHT22;15167;1.318;103.762;2022-07-15T12:44:27;30.30;99.90
27781;DHT22;15167;1.318;103.762;2022-07-15T12:47:00;30.30;99.90
27781;DHT22;15167;1.318;103.762;2022-07-15T12:49:39;30.20;99.90
27781;DHT22;15167;1.318;103.762;2022-07-15T12:52:12;30.20;99.90
27781;DHT22;15167;1.318;103.762;2022-07-15T12:54:38;30.20;99.90
27781;DHT22;15167;1.318;103.762;2022-07-15T12:57:05;30.20;99.90
27781;DHT22;15167;1.318;103.762;2022-07-15T13:02:16;30.20;99.90
27781;DHT22;15167;1.318;103.762;2022-07-15T13:04:42;30.20;99.90
27781;DHT22;15167;1.318;103.762;2022-07-15T13:07:08;30.30;99.90
27781;DHT22;15167;1.318;103.762;2022-07-15T13:09:34;30.30;99.90
27781;DHT22;15167;1.318;103.762;2022-07-15T13:12:01;30.20;99.90
27781;DHT22;15167;1.318;103.762;2022-07-15T13:14:28;30.20;99.90
27781;DHT22;15167;1.318;103.762;2022-07-15T13:16:54;30.20;99.90
27781;DHT22;15167;1.318;103.762;2022-07-15T13:19:20;30.10;99.90
27781;DHT22;15167;1.318;103.762;2022-07-15T13:21:46;30.10;99.90
27781;DHT22;15167;1.318;103.762;2022-07-15T13:24:12;30.10;99.90
27781;DHT22;15167;1.318;103.762;2022-07-15T13:26:38;30.00;99.90
27781;DHT22;15167;1.318;103.762;2022-07-15T13:29:04;29.90;99.90
27781;DHT22;15167;1.318;103.762;2022-07-15T13:31:31;29.90;99.90
27781;DHT22;15167;1.318;103.762;2022-07-15T13:33:57;29.90;99.90
27781;DHT22;15167;1.318;103.762;2022-07-15T13:36:23;29.90;99.90
27781;DHT22;15167;1.318;103.762;2022-07-15T13:38:49;29.90;99.90
27781;DHT22;15167;1.318;103.762;2022-07-15T13:41:16;29.90;99.90
27781;DHT22;15167;1.318;103.762;2022-07-15T13:43:42;29.90;99.90
27781;DHT22;15167;1.318;103.762;2022-07-15T13:46:08;29.90;99.90
27781;DHT22;15167;1.318;103.762;2022-07-15T13:48:34;29.90;99.90
27781;DHT22;15167;1.318;103.762;2022-07-15T13:51:00;29.90;99.90
27781;DHT22;15167;1.318;103.762;2022-07-15T13:53:45;30.00;99.90
27781;DHT22;15167;1.318;103.762;2022-07-15T13:56:11;29.90;99.90
27781;DHT22;15167;1.318;103.762;2022-07-15T13:58:37;29.80;99.90
27781;DHT22;15167;1.318;103.762;2022-07-15T14:01:04;29.80;99.90
27781;DHT22;15167;1.318;103.762;2022-07-15T14:03:30;29.70;99.90
27781;DHT22;15167;1.318;103.762;2022-07-15T14:05:56;29.70;99.90
27781;DHT22;15167;1.318;103.762;2022-07-15T14:08:22;29.70;99.90
27781;DHT22;15167;1.318;103.762;2022-07-15T14:10:49;29.70;99.90
27781;DHT22;15167;1.318;103.762;2022-07-15T14:13:15;29.70;99.90
27781;DHT22;15167;1.318;103.762;2022-07-15T14:15:41;29.70;99.90
27781;DHT22;15167;1.318;103.762;2022-07-15T14:18:07;29.70;99.90
27781;DHT22;15167;1.318;103.762;2022-07-15T14:20:35;29.70;99.90
27781;DHT22;15167;1.318;103.762;2022-07-15T14:23:24;29.70;99.90
27781;DHT22;15167;1.318;103.762;2022-07-15T14:25:51;29.60;99.90
27781;DHT22;15167;1.318;103.762;2022-07-15T14:28:17;29.60;99.90
27781;DHT22;15167;1.318;103.762;2022-07-15T14:30:43;29.50;99.90
27781;DHT22;15167;1.318;103.762;2022-07-15T14:33:09;29.50;99.90
27781;DHT22;15167;1.318;103.762;2022-07-15T14:35:35;29.50;99.90
27781;DHT22;15167;1.318;103.762;2022-07-15T14:38:02;29.50;99.90
27781;DHT22;15167;1.318;103.762;2022-07-15T14:40:29;29.40;99.90
27781;DHT22;15167;1.318;103.762;2022-07-15T14:42:55;28.60;99.90
27781;DHT22;15167;1.318;103.762;2022-07-15T14:45:21;29.40;99.90
27781;DHT22;15167;1.318;103.762;2022-07-15T14:47:47;29.40;99.90
27781;DHT22;15167;1.318;103.762;2022-07-15T14:50:14;29.40;99.90
27781;DHT22;15167;1.318;103.762;2022-07-15T14:52:40;29.80;99.90
27781;DHT22;15167;1.318;103.762;2022-07-15T14:55:06;29.40;99.90
27781;DHT22;15167;1.318;103.762;2022-07-15T14:57:32;29.30;99.90
27781;DHT22;15167;1.318;103.762;2022-07-15T14:59:59;29.30;99.90
27781;DHT22;15167;1.318;103.762;2022-07-15T15:02:25;29.30;99.90
27781;DHT22;15167;1.318;103.762;2022-07-15T15:04:51;29.30;99.90
27781;DHT22;15167;1.318;103.762;2022-07-15T15:07:17;29.30;99.90
27781;DHT22;15167;1.318;103.762;2022-07-15T15:09:44;29.30;99.90
27781;DHT22;15167;1.318;103.762;2022-07-15T15:12:10;29.30;99.90
27781;DHT22;15167;1.318;103.762;2022-07-15T15:14:36;29.30;99.90
27781;DHT22;15167;1.318;103.762;2022-07-15T15:17:02;29.20;99.90
27781;DHT22;15167;1.318;103.762;2022-07-15T15:19:28;29.90;99.90
27781;DHT22;15167;1.318;103.762;2022-07-15T15:21:55;29.20;99.90
27781;DHT22;15167;1.318;103.762;2022-07-15T15:24:21;29.20;99.90
27781;DHT22;15167;1.318;103.762;2022-07-15T15:26:47;29.20;99.90
27781;DHT22;15167;1.318;103.762;2022-07-15T15:29:15;29.20;99.90
27781;DHT22;15167;1.318;103.762;2022-07-15T15:31:41;29.20;99.90
27781;DHT22;15167;1.318;103.762;2022-07-15T15:34:08;29.20;99.90
27781;DHT22;15167;1.318;103.762;2022-07-15T15:36:34;29.20;99.90
27781;DHT22;15167;1.318;103.762;2022-07-15T15:39:00;29.20;99.90
27781;DHT22;15167;1.318;103.762;2022-07-15T15:41:26;29.30;99.90
27781;DHT22;15167;1.318;103.762;2022-07-15T15:43:53;29.20;99.90
27781;DHT22;15167;1.318;103.762;2022-07-15T15:46:20;29.20;99.90
27781;DHT22;15167;1.318;103.762;2022-07-15T15:48:46;29.20;99.90
27781;DHT22;15167;1.318;103.762;2022-07-15T15:51:12;29.20;99.90
27781;DHT22;15167;1.318;103.762;2022-07-15T15:53:38;29.10;99.90
27781;DHT22;15167;1.318;103.762;2022-07-15T15:56:04;29.10;99.90
27781;DHT22;15167;1.318;103.762;2022-07-15T15:58:30;29.10;99.90
27781;DHT22;15167;1.318;103.762;2022-07-15T16:00:57;29.10;99.90